createdAt,value
2017-09-28T00:00:50.653Z,36.37
2017-09-28T00:03:19.067Z,39.50
2017-09-28T00:05:47.458Z,38.30
2017-09-28T00:08:15.938Z,37.80
2017-09-28T00:10:44.360Z,36.80
2017-09-28T00:13:12.734Z,37.83
2017-09-28T00:15:42.958Z,35.70
2017-09-28T00:18:11.400Z,37.63
2017-09-28T00:20:40.914Z,36.10
2017-09-28T00:23:09.509Z,38.37
2017-09-28T00:25:38.647Z,46.20
2017-09-28T00:28:07.799Z,43.93
2017-09-28T00:30:37.126Z,40.50
2017-09-28T00:33:05.545Z,39.57
2017-09-28T00:35:35.965Z,38.33
2017-09-28T00:38:04.792Z,38.20
2017-09-28T00:40:33.139Z,38.13
2017-09-28T00:43:01.492Z,36.40
2017-09-28T00:45:29.962Z,36.67
2017-09-28T00:47:58.660Z,37.63
2017-09-28T00:50:27.851Z,38.50
2017-09-28T00:52:57.777Z,38.60
2017-09-28T00:55:26.908Z,40.87
2017-09-28T00:57:55.225Z,38.00
2017-09-28T01:00:24.391Z,36.27
2017-09-28T01:02:52.732Z,40.17
2017-09-28T01:05:21.062Z,40.30
2017-09-28T01:07:49.711Z,39.33
2017-09-28T01:10:18.089Z,37.33
2017-09-28T01:12:46.514Z,38.43
2017-09-28T01:15:15.782Z,40.70
2017-09-28T01:17:44.126Z,39.47
2017-09-28T01:20:12.493Z,41.50
2017-09-28T01:22:41.002Z,40.50
2017-09-28T01:25:09.376Z,40.10
2017-09-28T01:27:37.753Z,38.30
2017-09-28T01:30:06.264Z,35.87
2017-09-28T01:32:34.596Z,37.17
2017-09-28T01:35:02.967Z,33.30
2017-09-28T01:37:32.189Z,35.80
2017-09-28T01:40:00.511Z,34.07
2017-09-28T01:42:28.873Z,33.70
2017-09-28T01:44:58.033Z,36.67
2017-09-28T01:47:26.430Z,34.37
2017-09-28T01:49:55.189Z,30.70
2017-09-28T01:52:23.552Z,35.33
2017-09-28T01:54:52.687Z,35.03
2017-09-28T01:57:21.450Z,34.17
2017-09-28T01:59:49.965Z,32.20
2017-09-28T02:02:18.495Z,32.50
2017-09-28T02:04:47.645Z,36.43
2017-09-28T02:07:16.229Z,33.67
2017-09-28T02:09:44.568Z,30.10
2017-09-28T02:12:12.916Z,32.10
2017-09-28T02:14:41.297Z,31.17
2017-09-28T02:17:09.636Z,30.97
2017-09-28T02:19:37.990Z,28.17
2017-09-28T02:22:06.337Z,31.00
2017-09-28T02:24:34.657Z,27.97
2017-09-28T02:27:03.034Z,27.80
2017-09-28T02:29:31.544Z,29.70
2017-09-28T02:31:59.885Z,28.17
2017-09-28T02:34:28.209Z,27.30
2017-09-28T02:36:56.692Z,28.53
2017-09-28T02:39:25.013Z,28.13
2017-09-28T02:41:53.342Z,27.87
2017-09-28T02:44:21.986Z,27.43
2017-09-28T02:46:50.301Z,28.20
2017-09-28T02:49:18.635Z,27.47
2017-09-28T02:51:47.297Z,27.10
2017-09-28T02:54:16.373Z,26.20
2017-09-28T02:56:44.783Z,28.67
2017-09-28T02:59:13.481Z,28.73
2017-09-28T03:01:41.813Z,29.90
2017-09-28T03:04:10.160Z,29.60
2017-09-28T03:06:38.528Z,27.70
2017-09-28T03:09:06.855Z,29.77
2017-09-28T03:11:35.185Z,29.53
2017-09-28T03:14:03.676Z,27.17
2017-09-28T03:16:32.063Z,29.07
2017-09-28T03:19:00.410Z,27.37
2017-09-28T03:21:28.824Z,25.10
2017-09-28T03:23:57.149Z,27.80
2017-09-28T03:26:26.247Z,25.03
2017-09-28T03:28:54.615Z,27.13
2017-09-28T03:31:23.707Z,23.20
2017-09-28T03:33:52.797Z,25.70
2017-09-28T03:36:21.169Z,25.27
2017-09-28T03:38:49.533Z,23.53
2017-09-28T03:41:17.892Z,25.07
2017-09-28T03:43:46.340Z,26.20
2017-09-28T03:46:14.820Z,24.47
2017-09-28T03:48:43.149Z,25.30
2017-09-28T03:51:11.642Z,28.17
2017-09-28T03:53:40.250Z,27.30
2017-09-28T03:56:09.354Z,25.50
2017-09-28T03:58:38.556Z,24.87
2017-09-28T04:01:06.891Z,23.60
2017-09-28T04:03:35.239Z,24.07
2017-09-28T04:06:04.102Z,28.43
2017-09-28T04:08:32.425Z,29.17
2017-09-28T04:11:00.760Z,26.93
2017-09-28T04:13:29.266Z,26.70
2017-09-28T04:15:57.588Z,25.40
2017-09-28T04:18:26.705Z,25.17
2017-09-28T04:20:55.216Z,27.60
2017-09-28T04:23:23.567Z,25.30
2017-09-28T04:25:51.924Z,25.70
2017-09-28T04:28:21.177Z,24.07
2017-09-28T04:30:49.721Z,25.50
2017-09-28T04:33:18.060Z,27.50
2017-09-28T04:35:46.570Z,25.53
2017-09-28T04:38:15.664Z,27.43
2017-09-28T04:40:44.749Z,23.60
2017-09-28T04:43:13.135Z,24.10
2017-09-28T04:45:42.231Z,26.30
2017-09-28T04:48:11.363Z,24.80
2017-09-28T04:50:40.128Z,34.30
2017-09-28T04:53:09.229Z,30.40
2017-09-28T04:55:38.731Z,26.57
2017-09-28T04:58:07.989Z,31.17
2017-09-28T05:00:36.324Z,24.37
2017-09-28T05:03:04.720Z,24.70
2017-09-28T05:05:34.525Z,24.60
2017-09-28T05:08:02.880Z,24.10
2017-09-28T05:10:31.974Z,22.57
2017-09-28T05:13:00.625Z,24.20
2017-09-28T05:15:28.990Z,23.67
2017-09-28T05:17:57.335Z,24.60
2017-09-28T05:20:25.771Z,22.70
2017-09-28T05:22:54.114Z,21.83
2017-09-28T05:25:22.493Z,24.03
2017-09-28T05:27:50.850Z,25.17
2017-09-28T05:30:19.224Z,24.00
2017-09-28T05:32:49.338Z,26.47
2017-09-28T05:35:17.849Z,24.20
2017-09-28T05:37:46.219Z,24.20
2017-09-28T05:40:14.593Z,22.80
2017-09-28T05:42:43.100Z,22.50
2017-09-28T05:45:11.708Z,25.83
2017-09-28T05:47:40.057Z,24.70
2017-09-28T05:50:08.460Z,24.03
2017-09-28T05:52:36.821Z,24.60
2017-09-28T05:55:05.725Z,25.67
2017-09-28T05:57:34.229Z,25.77
2017-09-28T06:00:02.674Z,28.03
2017-09-28T06:02:30.997Z,24.77
2017-09-28T06:04:59.369Z,27.43
2017-09-28T06:07:28.457Z,27.10
2017-09-28T06:09:57.771Z,24.63
2017-09-28T06:12:26.147Z,27.03
2017-09-28T06:14:54.507Z,26.30
2017-09-28T06:17:23.606Z,27.93
2017-09-28T06:19:52.872Z,26.03
2017-09-28T06:22:22.163Z,27.10
2017-09-28T06:24:50.494Z,29.17
2017-09-28T06:27:19.796Z,25.80
2017-09-28T06:29:48.903Z,31.87
2017-09-28T06:32:18.002Z,28.37
2017-09-28T06:34:46.651Z,25.30
2017-09-28T06:37:15.923Z,26.17
2017-09-28T06:39:44.309Z,25.03
2017-09-28T06:42:13.641Z,27.27
2017-09-28T06:44:42.745Z,28.13
2017-09-28T06:47:11.521Z,29.03
2017-09-28T06:49:40.813Z,28.00
2017-09-28T06:52:09.217Z,31.20
2017-09-28T06:54:37.591Z,30.60
2017-09-28T06:57:06.889Z,27.30
2017-09-28T06:59:36.572Z,29.50
2017-09-28T07:02:04.991Z,28.53
2017-09-28T07:04:33.437Z,28.50
2017-09-28T07:07:01.792Z,23.53
2017-09-28T07:09:30.170Z,23.60
2017-09-28T07:11:58.549Z,26.37
2017-09-28T07:14:27.029Z,25.13
2017-09-28T07:16:55.422Z,25.37
2017-09-28T07:19:24.030Z,27.10
2017-09-28T07:21:53.201Z,26.27
2017-09-28T07:24:21.797Z,25.03
2017-09-28T07:26:50.989Z,26.70
2017-09-28T07:29:19.388Z,28.30
2017-09-28T07:31:48.651Z,25.20
2017-09-28T07:34:17.386Z,23.03
2017-09-28T07:36:45.801Z,27.70
2017-09-28T07:39:14.142Z,27.47
2017-09-28T07:41:43.404Z,25.50
2017-09-28T07:44:11.757Z,27.93
2017-09-28T07:46:40.094Z,25.37
2017-09-28T07:49:08.667Z,27.40
2017-09-28T07:51:37.807Z,27.27
2017-09-28T07:54:06.149Z,28.70
2017-09-28T07:56:34.779Z,28.53
2017-09-28T07:59:03.134Z,24.20
2017-09-28T08:01:31.592Z,23.80
2017-09-28T08:04:00.842Z,26.33
2017-09-28T08:06:29.223Z,23.80
2017-09-28T08:08:57.759Z,26.23
2017-09-28T08:11:27.770Z,24.57
2017-09-28T08:13:56.290Z,23.83
2017-09-28T08:16:24.673Z,21.20
2017-09-28T08:18:53.862Z,19.47
2017-09-28T08:21:22.387Z,19.70
2017-09-28T08:23:52.331Z,20.13
2017-09-28T08:26:21.058Z,19.73
2017-09-28T08:28:49.527Z,19.47
2017-09-28T08:31:17.906Z,19.97
2017-09-28T08:33:46.309Z,23.40
2017-09-28T08:36:14.711Z,20.47
2017-09-28T08:38:44.341Z,22.80
2017-09-28T08:41:12.826Z,23.43
2017-09-28T08:43:41.940Z,23.30
2017-09-28T08:46:10.418Z,23.37
2017-09-28T08:48:39.950Z,23.43
2017-09-28T08:51:08.493Z,24.03
2017-09-28T08:53:36.881Z,23.00
2017-09-28T08:56:05.321Z,23.60
2017-09-28T08:58:33.656Z,22.77
2017-09-28T09:01:02.060Z,21.40
2017-09-28T09:03:31.566Z,24.17
2017-09-28T09:05:59.912Z,25.47
2017-09-28T09:08:28.297Z,24.40
2017-09-28T09:10:56.877Z,24.30
2017-09-28T09:13:25.273Z,24.67
2017-09-28T09:15:53.624Z,23.53
2017-09-28T09:18:22.530Z,23.87
2017-09-28T09:20:50.956Z,24.23
2017-09-28T09:23:20.083Z,24.60
2017-09-28T09:25:48.547Z,25.43
2017-09-28T09:28:17.071Z,24.10
2017-09-28T09:30:45.442Z,22.80
2017-09-28T09:33:14.042Z,23.70
2017-09-28T09:35:42.462Z,21.10
2017-09-28T09:38:11.589Z,20.87
2017-09-28T09:40:40.417Z,22.10
2017-09-28T09:43:08.753Z,21.63
2017-09-28T09:45:37.123Z,21.10
2017-09-28T09:48:05.601Z,20.87
2017-09-28T09:50:33.968Z,21.33
2017-09-28T09:53:02.624Z,19.63
2017-09-28T09:55:31.019Z,22.80
2017-09-28T09:57:59.388Z,22.13
2017-09-28T10:00:27.737Z,22.13
2017-09-28T10:02:56.184Z,23.03
2017-09-28T10:05:24.779Z,19.33
2017-09-28T10:08:05.803Z,20.07
2017-09-28T10:10:41.023Z,19.83
2017-09-28T10:13:17.182Z,20.77
2017-09-28T10:15:50.671Z,19.80
2017-09-28T10:18:20.158Z,18.03
2017-09-28T10:20:48.607Z,19.90
2017-09-28T10:23:16.997Z,21.50
2017-09-28T10:25:45.405Z,19.90
2017-09-28T10:28:14.566Z,19.73
2017-09-28T10:30:42.951Z,20.37
2017-09-28T10:33:12.255Z,22.20
2017-09-28T10:35:41.509Z,18.63
2017-09-28T10:38:09.885Z,20.87
2017-09-28T10:40:39.083Z,22.17
2017-09-28T10:43:07.490Z,19.27
2017-09-28T10:45:36.010Z,20.20
2017-09-28T10:48:05.188Z,17.77
2017-09-28T10:50:33.607Z,21.93
2017-09-28T10:53:02.957Z,18.77
2017-09-28T10:55:31.409Z,19.57
2017-09-28T10:57:59.777Z,21.00
2017-09-28T11:00:29.150Z,18.50
2017-09-28T11:02:58.345Z,20.43
2017-09-28T11:05:28.724Z,19.63
2017-09-28T11:07:57.124Z,20.87
2017-09-28T11:10:27.006Z,21.20
2017-09-28T11:12:55.736Z,19.10
2017-09-28T11:15:24.415Z,21.80
2017-09-28T11:17:57.571Z,22.43
2017-09-28T11:20:28.070Z,22.50
2017-09-28T11:22:56.534Z,20.77
2017-09-28T11:25:24.969Z,21.93
2017-09-28T11:27:53.398Z,21.30
2017-09-28T11:30:21.845Z,22.50
2017-09-28T11:32:52.196Z,23.20
2017-09-28T11:35:20.580Z,22.50
2017-09-28T11:37:48.954Z,24.13
2017-09-28T11:40:17.490Z,21.70
2017-09-28T11:42:45.905Z,19.50
2017-09-28T11:45:14.294Z,22.60
2017-09-28T11:47:42.747Z,19.90
2017-09-28T11:50:11.974Z,20.83
2017-09-28T11:52:40.367Z,23.20
2017-09-28T11:55:09.176Z,21.13
2017-09-28T11:57:37.601Z,22.47
2017-09-28T12:00:05.948Z,20.20
2017-09-28T12:02:34.337Z,20.80
2017-09-28T12:05:03.500Z,20.40
2017-09-28T12:07:32.855Z,20.17
2017-09-28T12:10:02.888Z,22.47
2017-09-28T12:12:31.250Z,19.63
2017-09-28T12:14:59.676Z,21.43
2017-09-28T12:17:28.242Z,19.57
2017-09-28T12:19:56.669Z,19.80
2017-09-28T12:22:25.142Z,21.90
2017-09-28T12:24:53.665Z,21.37
2017-09-28T12:27:22.851Z,20.40
2017-09-28T12:29:51.987Z,19.40
2017-09-28T12:32:20.544Z,19.93
2017-09-28T12:34:48.907Z,21.40
2017-09-28T12:37:18.249Z,20.27
2017-09-28T12:39:47.117Z,21.03
2017-09-28T12:42:15.512Z,23.10
2017-09-28T12:44:44.029Z,22.80
2017-09-28T12:47:12.584Z,20.93
2017-09-28T12:49:42.049Z,21.07
2017-09-28T12:52:11.147Z,21.07
2017-09-28T12:54:39.645Z,19.80
2017-09-28T12:57:08.196Z,21.73
2017-09-28T12:59:36.560Z,20.73
2017-09-28T13:02:05.096Z,18.23
2017-09-28T13:04:33.550Z,18.77
2017-09-28T13:07:02.106Z,18.50
2017-09-28T13:09:31.591Z,20.63
2017-09-28T13:11:59.965Z,21.40
2017-09-28T13:14:29.009Z,19.70
2017-09-28T13:16:57.449Z,19.80
2017-09-28T13:19:25.872Z,18.80
2017-09-28T13:21:54.310Z,20.07
2017-09-28T13:24:22.710Z,19.73
2017-09-28T13:26:51.077Z,21.43
2017-09-28T13:29:19.480Z,22.00
2017-09-28T13:31:48.769Z,20.43
2017-09-28T13:34:17.163Z,18.23
2017-09-28T13:36:45.539Z,20.10
2017-09-28T13:39:14.814Z,20.80
2017-09-28T13:41:43.196Z,20.50
2017-09-28T13:44:11.577Z,20.57
2017-09-28T13:46:41.521Z,21.07
2017-09-28T13:49:09.947Z,19.67
2017-09-28T13:51:38.378Z,19.90
2017-09-28T13:54:06.931Z,23.00
2017-09-28T13:56:35.325Z,22.83
2017-09-28T13:59:04.637Z,19.57
2017-09-28T14:01:32.989Z,19.57
2017-09-28T14:04:01.361Z,20.97
2017-09-28T14:06:29.706Z,18.30
2017-09-28T14:08:58.232Z,20.20
2017-09-28T14:11:26.706Z,23.37
2017-09-28T14:13:55.092Z,23.30
2017-09-28T14:16:23.767Z,20.97
2017-09-28T14:18:53.068Z,22.77
2017-09-28T14:21:21.491Z,21.57
2017-09-28T14:23:50.397Z,21.80
2017-09-28T14:26:18.836Z,22.40
2017-09-28T14:28:47.323Z,22.90
2017-09-28T14:31:15.767Z,23.40
2017-09-28T14:33:44.258Z,25.53
2017-09-28T14:36:14.747Z,24.30
2017-09-28T14:38:43.404Z,23.23
2017-09-28T14:41:12.517Z,21.93
2017-09-28T14:43:40.899Z,24.60
2017-09-28T14:46:09.434Z,24.17
2017-09-28T14:48:38.856Z,20.17
2017-09-28T14:51:07.276Z,21.63
2017-09-28T14:53:35.701Z,21.97
2017-09-28T14:56:04.864Z,21.20
2017-09-28T14:58:34.181Z,21.70
2017-09-28T15:01:02.754Z,20.73
2017-09-28T15:03:31.095Z,20.90
2017-09-28T15:05:59.583Z,22.73
2017-09-28T15:08:28.925Z,23.73
2017-09-28T15:10:57.377Z,20.20
2017-09-28T15:13:26.097Z,22.00
2017-09-28T15:15:54.458Z,21.37
2017-09-28T15:18:22.877Z,22.30
2017-09-28T15:20:52.045Z,21.80
2017-09-28T15:23:21.501Z,22.27
2017-09-28T15:25:49.899Z,21.57
2017-09-28T15:28:18.255Z,22.17
2017-09-28T15:30:46.777Z,22.00
2017-09-28T15:33:15.286Z,22.67
2017-09-28T15:35:44.573Z,21.70
2017-09-28T15:38:13.560Z,23.97
2017-09-28T15:40:41.952Z,22.50
2017-09-28T15:43:10.341Z,22.87
2017-09-28T15:45:39.484Z,22.10
2017-09-28T15:48:07.962Z,22.80
2017-09-28T15:50:36.405Z,22.10
2017-09-28T15:53:07.130Z,23.73
2017-09-28T15:55:35.589Z,22.67
2017-09-28T15:58:03.931Z,24.60
2017-09-28T16:00:33.163Z,21.20
2017-09-28T16:03:03.076Z,23.50
2017-09-28T16:05:31.502Z,22.27
2017-09-28T16:08:00.914Z,22.60
2017-09-28T16:10:30.316Z,23.00
2017-09-28T16:12:58.706Z,22.17
2017-09-28T16:15:27.429Z,22.70
2017-09-28T16:17:55.845Z,23.50
2017-09-28T16:20:24.213Z,22.77
2017-09-28T16:22:52.844Z,22.67
2017-09-28T16:25:22.726Z,21.20
2017-09-28T16:27:51.127Z,22.83
2017-09-28T16:30:19.642Z,22.87
2017-09-28T16:32:48.146Z,23.37
2017-09-28T16:35:16.479Z,22.17
2017-09-28T16:37:45.334Z,22.27
2017-09-28T16:40:13.792Z,22.47
2017-09-28T16:42:43.794Z,22.90
2017-09-28T16:45:12.168Z,22.67
2017-09-28T16:47:40.531Z,21.20
2017-09-28T16:50:08.905Z,19.70
2017-09-28T16:52:37.516Z,21.00
2017-09-28T16:55:07.565Z,19.77
2017-09-28T16:57:36.924Z,19.20
2017-09-28T17:00:05.640Z,18.37
2017-09-28T17:02:34.953Z,17.93
2017-09-28T17:05:04.470Z,16.53
2017-09-28T17:07:33.823Z,16.60
2017-09-28T17:10:02.205Z,17.00
2017-09-28T17:12:31.037Z,17.13
2017-09-28T17:14:59.770Z,17.10
2017-09-28T17:17:28.451Z,18.70
2017-09-28T17:19:57.166Z,18.70
2017-09-28T17:22:25.626Z,17.43
2017-09-28T17:24:54.069Z,17.00
2017-09-28T17:27:22.454Z,16.40
2017-09-28T17:29:50.983Z,17.00
2017-09-28T17:32:19.333Z,17.97
2017-09-28T17:34:48.532Z,18.50
2017-09-28T17:37:18.504Z,17.90
2017-09-28T17:39:48.012Z,19.17
2017-09-28T17:42:18.030Z,17.73
2017-09-28T17:44:46.462Z,17.20
2017-09-28T17:47:14.875Z,16.80
2017-09-28T17:49:43.269Z,19.27
2017-09-28T17:52:11.788Z,19.10
2017-09-28T17:54:41.037Z,19.03
2017-09-28T17:57:09.466Z,21.67
2017-09-28T17:59:38.679Z,19.37
2017-09-28T18:02:07.077Z,19.40
2017-09-28T18:04:36.201Z,20.17
2017-09-28T18:07:04.987Z,21.30
2017-09-28T18:09:33.400Z,19.13
2017-09-28T18:12:02.687Z,18.70
2017-09-28T18:14:31.136Z,17.90
2017-09-28T18:16:59.580Z,19.30
2017-09-28T18:19:28.116Z,19.83
2017-09-28T18:21:56.617Z,19.10
2017-09-28T18:24:24.993Z,18.20
2017-09-28T18:26:54.847Z,19.20
2017-09-28T18:29:23.203Z,18.57
2017-09-28T18:31:51.634Z,18.10
2017-09-28T18:34:19.988Z,18.80
2017-09-28T18:36:49.167Z,18.53
2017-09-28T18:39:18.073Z,19.10
2017-09-28T18:41:46.483Z,18.83
2017-09-28T18:44:14.857Z,18.77
2017-09-28T18:46:43.253Z,16.17
2017-09-28T18:49:11.642Z,18.80
2017-09-28T18:51:40.349Z,17.90
2017-09-28T18:54:09.487Z,17.10
2017-09-28T18:56:39.562Z,17.03
2017-09-28T18:59:08.089Z,17.67
2017-09-28T19:01:36.467Z,18.13
2017-09-28T19:04:05.782Z,17.60
2017-09-28T19:06:34.696Z,20.87
2017-09-28T19:09:03.785Z,18.30
2017-09-28T19:11:32.170Z,16.97
2017-09-28T19:14:00.861Z,17.90
2017-09-28T19:16:30.754Z,18.70
2017-09-28T19:18:59.222Z,18.47
2017-09-28T19:21:29.013Z,19.20
2017-09-28T19:23:57.433Z,19.27
2017-09-28T19:26:25.778Z,24.13
2017-09-28T19:28:54.975Z,18.57
2017-09-28T19:31:24.116Z,17.67
2017-09-28T19:33:52.745Z,19.63
2017-09-28T19:36:21.254Z,19.80
2017-09-28T19:38:49.582Z,18.27
2017-09-28T19:41:19.395Z,19.17
2017-09-28T19:43:47.801Z,18.60
2017-09-28T19:46:16.198Z,20.10
2017-09-28T19:48:45.310Z,18.13
2017-09-28T19:51:13.888Z,19.50
2017-09-28T19:53:42.227Z,19.27
2017-09-28T19:56:10.646Z,18.70
2017-09-28T19:58:39.051Z,18.80
2017-09-28T20:01:07.442Z,20.03
2017-09-28T20:03:35.805Z,19.63
2017-09-28T20:06:04.230Z,20.27
2017-09-28T20:08:32.635Z,19.20
2017-09-28T20:11:01.006Z,21.17
2017-09-28T20:13:29.673Z,20.13
2017-09-28T20:15:58.770Z,20.60
2017-09-28T20:18:27.889Z,19.43
2017-09-28T20:20:56.673Z,19.97
2017-09-28T20:23:26.041Z,19.60
2017-09-28T20:25:54.598Z,20.40
2017-09-28T20:28:22.967Z,19.87
2017-09-28T20:30:51.307Z,20.03
2017-09-28T20:33:20.414Z,19.80
2017-09-28T20:35:48.776Z,20.47
2017-09-28T20:38:17.369Z,19.60
2017-09-28T20:40:45.724Z,18.10
2017-09-28T20:43:14.287Z,19.43
2017-09-28T20:45:42.648Z,22.03
2017-09-28T20:48:11.005Z,21.67
2017-09-28T20:50:39.514Z,21.53
2017-09-28T20:53:07.925Z,20.23
2017-09-28T20:55:36.349Z,21.93
2017-09-28T20:58:04.876Z,23.00
2017-09-28T21:00:33.293Z,21.37
2017-09-28T21:03:01.730Z,22.17
2017-09-28T21:05:30.868Z,21.77
2017-09-28T21:07:59.276Z,22.70
2017-09-28T21:10:27.841Z,21.83
2017-09-28T21:12:57.200Z,21.30
2017-09-28T21:15:26.365Z,21.30
2017-09-28T21:17:56.953Z,21.07
2017-09-28T21:20:26.410Z,22.37
2017-09-28T21:22:56.333Z,21.40
2017-09-28T21:25:26.669Z,20.67
2017-09-28T21:27:57.295Z,21.80
2017-09-28T21:30:26.701Z,22.77
2017-09-28T21:32:55.084Z,21.47
2017-09-28T21:35:24.934Z,21.90
2017-09-28T21:37:55.198Z,21.70
2017-09-28T21:40:23.605Z,21.33
2017-09-28T21:42:53.517Z,22.57
2017-09-28T21:45:21.928Z,21.00
2017-09-28T21:47:50.753Z,20.90
2017-09-28T21:50:20.603Z,22.30
2017-09-28T21:52:50.319Z,22.40
2017-09-28T21:55:18.759Z,22.63
2017-09-28T21:57:47.488Z,23.43
2017-09-28T22:00:16.030Z,24.03
2017-09-28T22:02:44.617Z,22.40
2017-09-28T22:05:13.198Z,22.27
2017-09-28T22:07:42.419Z,23.97
2017-09-28T22:10:12.611Z,22.00
2017-09-28T22:12:42.251Z,23.53
2017-09-28T22:15:11.267Z,25.13
2017-09-28T22:17:41.411Z,25.70
2017-09-28T22:20:10.009Z,25.77
2017-09-28T22:22:40.025Z,26.00
2017-09-28T22:25:09.287Z,24.70
2017-09-28T22:27:40.251Z,25.77
2017-09-28T22:30:09.883Z,24.33
2017-09-28T22:32:39.077Z,25.63
2017-09-28T22:35:08.059Z,25.10
2017-09-28T22:37:36.703Z,24.73
2017-09-28T22:40:05.392Z,25.47
2017-09-28T22:42:34.873Z,27.60
2017-09-28T22:45:04.799Z,24.43
2017-09-28T22:47:33.211Z,27.23
2017-09-28T22:50:01.951Z,25.80
2017-09-28T22:52:32.411Z,28.00
2017-09-28T22:55:01.803Z,28.00
2017-09-28T22:57:31.083Z,28.23
2017-09-28T22:59:59.490Z,26.57
2017-09-28T23:02:29.679Z,27.57
2017-09-28T23:04:58.660Z,27.97
2017-09-28T23:07:27.021Z,30.10
2017-09-28T23:09:55.379Z,31.10
2017-09-28T23:12:23.921Z,30.00
2017-09-28T23:14:53.192Z,30.00
2017-09-28T23:17:21.525Z,28.07
2017-09-28T23:19:50.474Z,28.10
2017-09-28T23:22:18.871Z,28.30
2017-09-28T23:24:48.996Z,28.67
2017-09-28T23:27:18.257Z,30.17
2017-09-28T23:29:47.988Z,33.67
2017-09-28T23:32:17.101Z,30.40
2017-09-28T23:34:46.232Z,31.57
2017-09-28T23:37:14.557Z,31.67
2017-09-28T23:39:42.882Z,28.70
2017-09-28T23:42:11.384Z,34.00
2017-09-28T23:44:39.740Z,28.33
2017-09-28T23:47:08.074Z,29.07
2017-09-28T23:49:36.606Z,30.27
2017-09-28T23:52:05.062Z,29.07
2017-09-28T23:54:34.409Z,30.20
2017-09-28T23:57:03.833Z,30.60
2017-09-28T23:59:32.191Z,31.10
